Bodega Marine Reserve, California Weather observations

Data are for 10 minute period ending at time listed.
 Day   Time   Solar   Ave.   Ave.  Ave.  Vector  Max.   Baro.   Total    
  of    of     Rad.   Air    Rel.  Wind   Wind   Wind  Press.  Precip.   
Year   Day            Temp.  Hum.  Speed  Dir.   Gust                    
2015   (PST)  Kw/m2    F      %     mph   deg.    mph    mb.     in.     
-------------------------------------------------------------------------
  30    4:10   0.00   45.2    94    0.4    53     1.2   1013.9    0.00 
  30    4:20   0.00   45.1    95    0.3    84     1.0   1013.5    0.00 
  30    4:30   0.00   45.6    95    0.0     0     0.0   1013.5    0.00 
  30    4:40   0.00   43.9    94    0.0     0     0.0   1013.5    0.00 
  30    4:50   0.00   44.3    95    0.0     0     0.0   1013.5    0.00 
  30    5:00   0.00   44.0    94    1.6   136     2.6   1013.5    0.00 
  30    5:10   0.00   43.8    95    3.0   146     3.9   1013.5    0.00 
  30    5:20   0.00   43.8    95    3.2   145     3.9   1013.2    0.00 
  30    5:30   0.00   43.9    95    3.0   144     3.6   1013.2    0.00 
  30    5:40   0.00   45.1    95    1.2   128     3.0   1013.2    0.00 
  30    5:50   0.00   45.2    96    0.6    74     1.4   1013.5    0.00 
  30    6:00   0.00   45.8    95    0.6    93     1.6   1013.5    0.00 
  30    6:10   0.00   44.7    95    0.1   107     0.9   1013.5    0.00 
  30    6:20   0.00   44.5    96    1.6   105     2.6   1013.5    0.00 
  30    6:30   0.00   45.0    95    2.2   119     3.0   1013.2    0.00 
  30    6:40   0.00   45.2    96    2.2   136     3.4   1013.2    0.00 
  30    6:50   0.00   45.6    96    3.1   131     4.6   1013.2    0.00 
  30    7:00   0.00   45.6    96    3.6   132     5.4   1013.2    0.00 
  30    7:10   0.00   45.9    95    2.7   123     4.3   1013.2    0.00 
  30    7:20   0.00   45.9    96    3.7   107     6.0   1013.2    0.00 
  30    7:30   0.01   46.2    95    4.1   108     7.2   1013.2    0.00 
  30    7:40   0.02   45.7    95    5.2    89     6.9   1013.2    0.00 
  30    7:50   0.04   45.7    95    4.7    93     6.5   1013.2    0.00 
  30    8:00   0.06   46.0    95    6.0    97     7.6   1013.2    0.00 
  30    8:10   0.08   46.7    95    4.2   106     6.7   1013.2    0.00 
  30    8:20   0.11   47.6    94    3.2   119     5.3   1013.5    0.00 
  30    8:30   0.14   48.7    94    4.0   121     7.3   1013.5    0.00 
  30    8:40   0.17   49.9    93    3.1   120     5.4   1013.5    0.00 
  30    8:50   0.19   50.6    90    4.3   107     6.9   1013.5    0.00 
  30    9:00   0.22   51.0    89    3.2   104     5.1   1013.5    0.00 
  30    9:10   0.24   51.9    88    4.5   133     6.6   1013.5    0.00 
  30    9:20   0.27   51.9    87    7.6   142     9.9   1013.5    0.00 
  30    9:30   0.29   51.8    88    6.9   142     8.3   1013.5    0.00 
  30    9:40   0.32   52.4    87    7.3   141     9.1   1013.9    0.00 
  30    9:50   0.34   52.7    86    7.2   143     8.8   1013.9    0.00 
  30   10:00   0.36   53.1    86    6.1   145     7.9   1014.2    0.00 
  30   10:10   0.38   53.8    85    5.9   141     7.7   1014.2    0.00 
  30   10:20   0.40   53.9    84    6.8   139     8.4   1013.9    0.00 
  30   10:30   0.42   54.4    82    6.9   139     8.5   1014.2    0.00 
  30   10:40   0.44   54.6    80    7.5   144     8.9   1013.9    0.00 
  30   10:50   0.45   55.3    78    6.5   135     8.3   1013.9    0.00 
  30   11:00   0.47   55.9    78    4.4   139     6.7   1014.2    0.00 
  30   11:10   0.48   56.3    78    4.3   132     5.6   1013.9    0.00 
  30   11:20   0.49   56.9    75    4.8   137     5.9   1013.9    0.00 
  30   11:30   0.51   56.9    76    4.7   135     6.0   1013.5    0.00 
  30   11:40   0.51   57.0    77    4.7   136     5.9   1013.5    0.00 
  30   11:50   0.53   57.1    77    2.5   119     4.7   1013.5    0.00 
  30   12:00   0.53   58.9    72    2.6   129     4.4   1013.2    0.00 
  30   12:10   100.00  99999.0   99999  99999.0   99999   99999.0   99999.0   99999.00 
  30   12:20   100.00  99999.0   99999  99999.0   99999   99999.0   99999.0   99999.00 
  30   12:30   100.00  99999.0   99999  99999.0   99999   99999.0   99999.0   99999.00 
  30   12:40   100.00  99999.0   99999  99999.0   99999   99999.0   99999.0   99999.00 
  30   12:50   100.00  99999.0   99999  99999.0   99999   99999.0   99999.0   99999.00 
  30   13:00   100.00  99999.0   99999  99999.0   99999   99999.0   99999.0   99999.00 
  30   13:10   100.00  99999.0   99999  99999.0   99999   99999.0   99999.0   99999.00 
  30   13:20   100.00  99999.0   99999  99999.0   99999   99999.0   99999.0   99999.00 
  30   13:30   100.00  99999.0   99999  99999.0   99999   99999.0   99999.0   99999.00 
  30   13:40   100.00  99999.0   99999  99999.0   99999   99999.0   99999.0   99999.00 
  30   13:50   100.00  99999.0   99999  99999.0   99999   99999.0   99999.0   99999.00 
  30   14:00   100.00  99999.0   99999  99999.0   99999   99999.0   99999.0   99999.00 
  30   14:10   100.00  99999.0   99999  99999.0   99999   99999.0   99999.0   99999.00 
  30   14:20   100.00  99999.0   99999  99999.0   99999   99999.0   99999.0   99999.00 
  30   14:30   100.00  99999.0   99999  99999.0   99999   99999.0   99999.0   99999.00 
  30   14:40   100.00  99999.0   99999  99999.0   99999   99999.0   99999.0   99999.00 
  30   14:50   100.00  99999.0   99999  99999.0   99999   99999.0   99999.0   99999.00 
  30   15:00   100.00  99999.0   99999  99999.0   99999   99999.0   99999.0   99999.00 
  30   15:10   100.00  99999.0   99999  99999.0   99999   99999.0   99999.0   99999.00 
  30   15:20   100.00  99999.0   99999  99999.0   99999   99999.0   99999.0   99999.00 
  30   15:30   100.00  99999.0   99999  99999.0   99999   99999.0   99999.0   99999.00 
  30   15:40   100.00  99999.0   99999  99999.0   99999   99999.0   99999.0   99999.00 
  30   15:50   100.00  99999.0   99999  99999.0   99999   99999.0   99999.0   99999.00 
  30   16:00   100.00  99999.0   99999  99999.0   99999   99999.0   99999.0   99999.00 
  30   16:10   100.00  99999.0   99999  99999.0   99999   99999.0   99999.0   99999.00 
  30   16:20   100.00  99999.0   99999  99999.0   99999   99999.0   99999.0   99999.00 
  30   16:30   100.00  99999.0   99999  99999.0   99999   99999.0   99999.0   99999.00 
  30   16:40   100.00  99999.0   99999  99999.0   99999   99999.0   99999.0   99999.00 
  30   16:50   100.00  99999.0   99999  99999.0   99999   99999.0   99999.0   99999.00 
  30   17:00   100.00  99999.0   99999  99999.0   99999   99999.0   99999.0   99999.00 
  30   17:10   100.00  99999.0   99999  99999.0   99999   99999.0   99999.0   99999.00 
  30   17:20   100.00  99999.0   99999  99999.0   99999   99999.0   99999.0   99999.00 
  30   17:30   100.00  99999.0   99999  99999.0   99999   99999.0   99999.0   99999.00 
  30   17:40   100.00  99999.0   99999  99999.0   99999   99999.0   99999.0   99999.00 
  30   17:50   100.00  99999.0   99999  99999.0   99999   99999.0   99999.0   99999.00 
  30   18:00   100.00  99999.0   99999  99999.0   99999   99999.0   99999.0   99999.00 
  30   18:10   100.00  99999.0   99999  99999.0   99999   99999.0   99999.0   99999.00 
  30   18:20   100.00  99999.0   99999  99999.0   99999   99999.0   99999.0   99999.00 
  30   18:30   100.00  99999.0   99999  99999.0   99999   99999.0   99999.0   99999.00 
  30   18:40   100.00  99999.0   99999  99999.0   99999   99999.0   99999.0   99999.00 
  30   18:50   100.00  99999.0   99999  99999.0   99999   99999.0   99999.0   99999.00 
  30   19:00   100.00  99999.0   99999  99999.0   99999   99999.0   99999.0   99999.00 
  30   19:10   100.00  99999.0   99999  99999.0   99999   99999.0   99999.0   99999.00 
  30   19:20   100.00  99999.0   99999  99999.0   99999   99999.0   99999.0   99999.00 
  30   19:30   100.00  99999.0   99999  99999.0   99999   99999.0   99999.0   99999.00 
  30   19:40   100.00  99999.0   99999  99999.0   99999   99999.0   99999.0   99999.00 
  30   19:50   100.00  99999.0   99999  99999.0   99999   99999.0   99999.0   99999.00 
  30   20:00   100.00  99999.0   99999  99999.0   99999   99999.0   99999.0   99999.00 
  30   20:10   100.00  99999.0   99999  99999.0   99999   99999.0   99999.0   99999.00 
  30   20:20   0.00   54.5    92   12.0   321    16.2   1010.8    0.00 
  30   20:30   0.00   54.2    92    8.8   326    13.8   1010.8    0.00 
  30   20:40   0.00   53.6    92    3.7   335     7.3   1010.8    0.00 
  30   20:50   0.00   52.7    92    3.5   315     5.8   1010.8    0.00 
  30   21:00   0.00   52.7    92    4.2   297     6.9   1010.5    0.00 
  30   21:10   0.00   52.5    93    5.4   297     7.5   1010.5    0.00 
  30   21:20   0.00   52.5    93    3.9   299     6.4   1010.5    0.00 
  30   21:30   0.00   51.3    92    2.1    57     4.2   1010.5    0.00 
  30   21:40   0.00   50.7    93    1.0   100     2.3   1010.5    0.00 
  30   21:50   0.00   49.8    93    2.7   119     3.9   1010.5    0.00 
  30   22:00   0.00   50.0    94    3.2   140     4.5   1010.5    0.00 
  30   22:10   0.00   50.5    94    3.2   148     5.2   1010.5    0.00 
  30   22:20   0.00   51.2    94    4.8   151     6.4   1010.5    0.00 
  30   22:30   0.00   51.4    94    5.4   149     6.5   1010.5    0.00 
  30   22:40   0.00   51.7    94    6.6   152     8.2   1010.8    0.00 
  30   22:50   0.00   51.8    94    7.3   146     9.2   1010.8    0.00 
  30   23:00   0.00   52.2    93    5.2   147     7.5   1010.5    0.00 
  30   23:10   0.00   52.2    93    5.1   143     7.4   1010.5    0.00 
  30   23:20   0.00   51.9    93    4.8   146     8.3   1010.5    0.00 
  30   23:30   0.00   50.6    92    3.2   178     6.0   1010.5    0.00 
  30   23:40   0.00   48.8    93    2.0   345     4.1   1010.5    0.00 
  30   23:50   0.00   48.7    92    2.0   360     3.6   1010.5    0.00 
  31    0:00   0.00   47.8    93    0.9   324     2.6   1010.5    0.00 
  31    0:10   0.00   48.3    93    2.2   271     4.7   1010.2    0.00 
  31    0:20   0.00   49.1    90    4.4   310    11.5   1010.2    0.00 
  31    0:30   0.00   49.5    91    9.4   282    11.3   1010.5    0.00 
  31    0:40   0.00   50.1    93    9.9   290    11.1   1010.5    0.00 
  31    0:50   0.00   49.9    93    7.0   301    10.7   1010.5    0.00 
  31    1:00   0.00   50.6    94    4.9   294     6.6   1010.5    0.00 
  31    1:10   0.00   51.0    94    3.9   293     5.5   1010.5    0.00 
  31    1:20   0.00   52.4    94    2.5   276     3.9   1010.5    0.00 
  31    1:30   0.00   51.7    93    2.9   290     5.1   1010.5    0.00 
  31    1:40   0.00   49.8    92    4.9   281     7.8   1010.5    0.00 
  31    1:50   0.00   49.9    95    7.9   271     9.5   1010.5    0.00 
  31    2:00   0.00   49.6    94    4.2   298     9.0   1010.5    0.00 
  31    2:10   0.00   50.5    95    2.5   286     4.5   1010.5    0.00 
  31    2:20   0.00   51.5    94    3.3   287     5.9   1010.5    0.01 
  31    2:30   0.00   50.9    94    5.2   285     6.8   1010.5    0.00 
  31    2:40   0.00   50.9    95    5.7   289     7.2   1010.5    0.00 
  31    2:50   0.00   49.7    94    5.9   294     6.7   1010.5    0.00 
  31    3:00   0.00   48.5    95    4.8   288     5.8   1010.2    0.00 
  31    3:10   0.00   48.3    94    4.6   283     5.6   1010.2    0.00 
  31    3:20   0.00   48.8    96    3.9   287     5.2   1010.2    0.00 
  31    3:30   0.00   49.2    95    3.1   277     5.4   1010.2    0.00 
  31    3:40   0.00   49.0    95    4.0   273     5.4   1010.2    0.00 
  31    3:50   0.00   48.9    94    2.7   241     4.0   1010.2    0.00 
  31    4:00   0.00   47.5    94    2.4   142     3.7   1010.2    0.00 

Return to Bodega Marine Reserve graphs page.


Western Regional Climate Center,wrcc@dri.edu